Time;durP1;ratioP1;P1;durP2;ratioP2;P2;SDS_P1;SDS_P2;PMS_P1;PMS_P2;Temp;Humidity;BMP_temperature;BMP_pressure;BME280_temperature;BME280_humidity;BME280_pressure;Samples;Min_cycle;Max_cycle;Signal;HPM_P1;HPM_P2
2021/10/16 00:00:17;;;;;;;6.90;2.70;;;6.70;99.90;;;;;;5250460;28;20583;-71
2021/10/16 00:02:49;;;;;;;11.00;3.30;;;6.70;99.90;;;;;;5250374;28;20617;-66
2021/10/16 00:05:22;;;;;;;10.90;3.07;;;6.70;99.90;;;;;;5249863;28;20229;-66
2021/10/16 00:07:56;;;;;;;13.00;3.30;;;6.70;99.90;;;;;;5249612;28;20567;-65
2021/10/16 00:10:28;;;;;;;9.13;3.63;;;6.70;99.90;;;;;;5249594;28;20227;-68
2021/10/16 00:13:00;;;;;;;6.07;3.13;;;6.60;99.90;;;;;;5250597;28;20540;-66
2021/10/16 00:15:32;;;;;;;12.17;3.50;;;6.60;99.90;;;;;;5250696;28;20224;-66
2021/10/16 00:18:05;;;;;;;11.20;3.40;;;6.60;99.90;;;;;;5249883;28;20699;-71
2021/10/16 00:20:37;;;;;;;9.00;3.43;;;6.60;99.90;;;;;;5250822;28;20319;-65
2021/10/16 00:23:09;;;;;;;6.97;3.40;;;6.60;99.90;;;;;;5249904;28;20296;-65
2021/10/16 00:25:41;;;;;;;8.90;3.57;;;6.60;99.90;;;;;;5250355;28;20229;-67
2021/10/16 00:28:13;;;;;;;7.57;3.10;;;6.60;99.90;;;;;;5251420;28;20613;-67
2021/10/16 00:30:45;;;;;;;10.73;3.40;;;6.60;99.90;;;;;;5282694;28;20244;-68
2021/10/16 00:33:17;;;;;;;9.40;3.30;;;6.60;99.90;;;;;;5250526;28;20624;-67
2021/10/16 00:35:51;;;;;;;10.40;3.73;;;6.70;99.90;;;;;;5249904;28;20593;-65
2021/10/16 00:38:25;;;;;;;12.50;3.63;;;6.70;99.90;;;;;;5249159;28;20208;-70
2021/10/16 00:40:59;;;;;;;9.47;2.93;;;6.70;99.90;;;;;;5249370;28;20231;-64
2021/10/16 00:43:31;;;;;;;9.93;2.93;;;6.60;99.90;;;;;;5249498;28;20219;-65
2021/10/16 00:46:03;;;;;;;10.97;2.60;;;6.60;99.90;;;;;;5249330;28;20239;-68
2021/10/16 00:48:35;;;;;;;7.03;2.40;;;6.60;99.90;;;;;;5250137;28;20197;-67
2021/10/16 00:51:10;;;;;;;9.33;2.70;;;6.60;99.90;;;;;;5249541;28;20652;-68
2021/10/16 00:53:44;;;;;;;8.57;2.70;;;6.60;99.90;;;;;;5248834;28;20213;-68
2021/10/16 00:56:18;;;;;;;5.90;2.20;;;6.60;99.90;;;;;;5248952;28;20228;-67
2021/10/16 00:58:51;;;;;;;7.33;2.67;;;6.50;99.90;;;;;;5249473;28;20239;-66
2021/10/16 01:01:23;;;;;;;10.57;2.87;;;6.50;99.90;;;;;;5249134;28;20239;-68
2021/10/16 01:03:55;;;;;;;9.87;2.40;;;6.50;99.90;;;;;;5249435;28;20543;-67
2021/10/16 01:06:29;;;;;;;7.23;2.57;;;6.50;99.90;;;;;;5251545;28;20232;-67
2021/10/16 01:09:01;;;;;;;10.83;2.50;;;6.50;99.90;;;;;;5252986;28;20236;-68
2021/10/16 01:11:36;;;;;;;9.07;2.80;;;6.50;99.90;;;;;;5253421;28;20229;-67
2021/10/16 01:14:11;;;;;;;5.73;2.50;;;6.40;99.90;;;;;;5253107;28;20215;-67
2021/10/16 01:16:45;;;;;;;4.97;2.60;;;6.40;99.90;;;;;;5252506;28;20235;-66
2021/10/16 01:19:19;;;;;;;8.57;2.37;;;6.40;99.90;;;;;;5252051;28;20205;-65
2021/10/16 01:21:52;;;;;;;8.83;2.77;;;6.40;99.90;;;;;;5252785;28;20695;-65
2021/10/16 01:24:24;;;;;;;9.50;2.73;;;6.40;99.90;;;;;;5253481;28;20209;-67
2021/10/16 01:26:59;;;;;;;7.20;2.30;;;6.40;99.90;;;;;;5252811;28;20302;-69
2021/10/16 01:29:34;;;;;;;10.50;2.10;;;6.40;99.90;;;;;;5252406;28;20223;-66
2021/10/16 01:32:06;;;;;;;7.23;2.10;;;6.40;99.90;;;;;;5254810;28;20542;-68
2021/10/16 01:34:38;;;;;;;9.33;2.13;;;6.40;99.90;;;;;;5253367;28;20205;-68
2021/10/16 01:37:10;;;;;;;7.13;2.30;;;6.50;99.90;;;;;;5252519;28;20232;-67
2021/10/16 01:39:45;;;;;;;7.37;2.30;;;6.50;99.90;;;;;;5252763;28;20205;-70
2021/10/16 01:42:17;;;;;;;6.80;2.07;;;6.60;99.90;;;;;;5251859;28;20238;-66
2021/10/16 01:44:51;;;;;;;7.73;2.10;;;6.60;99.90;;;;;;5251469;28;20247;-64
2021/10/16 01:47:23;;;;;;;10.70;2.57;;;6.70;99.90;;;;;;5252377;28;20665;-65
2021/10/16 01:49:56;;;;;;;6.93;2.30;;;6.70;99.90;;;;;;5252268;28;20216;-66
2021/10/16 01:52:31;;;;;;;7.53;2.17;;;6.80;99.90;;;;;;5251250;28;20228;-67
2021/10/16 01:55:06;;;;;;;6.07;1.90;;;6.80;99.90;;;;;;5252287;28;20192;-67
2021/10/16 01:57:38;;;;;;;8.47;2.33;;;6.90;99.90;;;;;;5252226;28;20240;-69
2021/10/16 02:00:11;;;;;;;4.90;2.00;;;6.90;99.90;;;;;;5251633;28;20649;-69
2021/10/16 02:02:43;;;;;;;6.07;2.20;;;6.90;99.90;;;;;;5252526;28;20293;-70
2021/10/16 02:05:15;;;;;;;11.33;2.63;;;7.00;99.90;;;;;;5252050;28;20549;-67
2021/10/16 02:07:50;;;;;;;8.87;1.90;;;7.00;99.90;;;;;;5251404;28;20338;-70
2021/10/16 02:10:22;;;;;;;9.50;2.70;;;7.10;99.90;;;;;;5252109;28;20544;-67
2021/10/16 02:12:58;;;;;;;9.50;2.63;;;7.10;99.90;;;;;;5252071;28;20224;-67
2021/10/16 02:15:33;;;;;;;8.63;2.50;;;7.20;99.90;;;;;;5252105;28;20597;-65
2021/10/16 02:18:07;;;;;;;12.10;2.67;;;7.20;99.90;;;;;;5250846;28;20239;-64
2021/10/16 02:20:39;;;;;;;7.30;2.93;;;7.20;99.90;;;;;;5251452;28;20218;-68
2021/10/16 02:23:11;;;;;;;10.50;3.50;;;7.20;99.90;;;;;;5251683;28;20243;-66
2021/10/16 02:25:43;;;;;;;15.50;3.53;;;7.20;99.90;;;;;;5251890;28;20287;-67
2021/10/16 02:28:17;;;;;;;11.80;3.47;;;7.20;99.90;;;;;;5250246;28;20233;-69
2021/10/16 02:30:49;;;;;;;9.57;3.23;;;7.20;99.90;;;;;;5251575;28;20201;-66
2021/10/16 02:33:21;;;;;;;12.37;3.20;;;7.20;99.90;;;;;;5251467;28;20221;-67
2021/10/16 02:35:54;;;;;;;9.83;3.23;;;7.30;99.90;;;;;;5251721;28;20232;-65
2021/10/16 02:38:26;;;;;;;14.63;3.77;;;7.20;99.90;;;;;;5251351;28;20232;-66
2021/10/16 02:40:58;;;;;;;5.47;2.73;;;7.20;99.90;;;;;;5250554;28;20542;-68
2021/10/16 02:43:30;;;;;;;6.57;2.70;;;7.20;99.90;;;;;;5251624;28;20228;-66
2021/10/16 02:46:02;;;;;;;9.47;3.10;;;7.20;99.90;;;;;;5251216;28;20208;-69
2021/10/16 02:48:34;;;;;;;7.90;2.60;;;7.10;99.90;;;;;;5251317;28;20229;-64
2021/10/16 02:51:06;;;;;;;12.60;2.60;;;7.00;99.90;;;;;;5233743;28;20216;-68
2021/10/16 02:53:38;;;;;;;10.60;2.40;;;7.00;99.90;;;;;;5249798;28;20224;-65
2021/10/16 02:56:10;;;;;;;7.73;2.30;;;6.90;99.90;;;;;;5250091;28;20215;-65
2021/10/16 02:58:44;;;;;;;10.47;2.40;;;6.90;99.90;;;;;;5250497;28;20231;-67
2021/10/16 03:01:16;;;;;;;7.23;2.60;;;6.90;99.90;;;;;;5250834;28;20200;-65
2021/10/16 03:03:48;;;;;;;6.20;2.10;;;6.90;99.90;;;;;;5251044;28;20308;-69
2021/10/16 03:06:20;;;;;;;7.37;2.20;;;6.80;99.90;;;;;;5283454;28;20510;-70
2021/10/16 03:08:52;;;;;;;7.83;1.90;;;6.80;99.90;;;;;;5251463;28;20233;-67
2021/10/16 03:11:24;;;;;;;8.37;2.20;;;6.80;99.90;;;;;;5251123;28;20515;-67
2021/10/16 03:13:59;;;;;;;8.53;2.20;;;6.80;99.90;;;;;;5251282;28;20230;-68
2021/10/16 03:16:32;;;;;;;11.60;2.47;;;6.80;99.90;;;;;;5251133;28;20212;-70
2021/10/16 03:19:04;;;;;;;14.03;2.43;;;6.80;99.90;;;;;;5250740;28;20232;-69
2021/10/16 03:21:36;;;;;;;7.77;2.50;;;6.70;99.90;;;;;;5251066;28;20232;-68
2021/10/16 03:24:08;;;;;;;11.93;2.43;;;6.70;99.90;;;;;;5250700;28;20572;-70
2021/10/16 03:26:39;;;;;;;12.50;2.60;;;6.70;99.90;;;;;;5249365;28;20220;-67
2021/10/16 03:29:14;;;;;;;11.60;2.50;;;6.70;99.90;;;;;;5248707;28;20236;-70
2021/10/16 03:31:46;;;;;;;10.87;2.10;;;6.70;99.90;;;;;;5250469;28;20204;-67
2021/10/16 03:34:18;;;;;;;10.37;2.70;;;6.70;99.90;;;;;;5250067;28;20294;-69
2021/10/16 03:36:50;;;;;;;15.10;2.90;;;6.60;99.90;;;;;;5250786;28;20284;-69
2021/10/16 03:39:22;;;;;;;14.67;3.37;;;6.70;99.90;;;;;;5250356;28;20374;-68
2021/10/16 03:41:54;;;;;;;10.60;3.17;;;6.70;99.90;;;;;;5250564;28;20651;-72
2021/10/16 03:44:26;;;;;;;14.63;3.07;;;6.60;99.90;;;;;;5250006;28;20236;-67
2021/10/16 03:46:58;;;;;;;7.20;2.37;;;6.60;99.90;;;;;;5250658;28;20221;-70
2021/10/16 03:49:32;;;;;;;10.50;2.63;;;6.60;99.90;;;;;;5249571;28;20255;-67
2021/10/16 03:52:10;;;;;;;11.13;2.20;;;6.70;99.90;;;;;;5250720;28;20185;-69
2021/10/16 03:54:42;;;;;;;8.20;2.60;;;6.60;99.90;;;;;;5251481;28;20248;-69
2021/10/16 03:57:15;;;;;;;18.70;3.27;;;6.60;99.90;;;;;;5250192;28;20219;-69
2021/10/16 03:59:47;;;;;;;13.70;2.97;;;6.60;99.90;;;;;;5252666;28;20354;-71
2021/10/16 04:02:19;;;;;;;11.97;2.77;;;6.60;99.90;;;;;;5284382;28;20201;-72
2021/10/16 04:04:51;;;;;;;11.30;2.87;;;6.60;99.90;;;;;;5250811;28;20235;-71
2021/10/16 04:07:23;;;;;;;12.30;2.80;;;6.60;99.90;;;;;;5250138;28;20228;-69
2021/10/16 04:09:55;;;;;;;11.60;3.40;;;6.60;99.90;;;;;;5249187;28;20232;-67
2021/10/16 04:12:27;;;;;;;10.07;2.80;;;6.60;99.90;;;;;;5250092;28;20204;-68
2021/10/16 04:14:59;;;;;;;12.80;2.83;;;6.60;99.90;;;;;;5250109;28;20311;-70
2021/10/16 04:17:32;;;;;;;18.70;3.27;;;6.60;99.90;;;;;;5249700;28;20200;-67
2021/10/16 04:20:08;;;;;;;11.50;2.53;;;6.60;99.90;;;;;;5249744;28;20656;-67
2021/10/16 04:22:40;;;;;;;15.73;2.80;;;6.50;99.90;;;;;;5248875;28;20206;-65
2021/10/16 04:25:12;;;;;;;14.27;2.87;;;6.60;99.90;;;;;;5249807;28;20228;-67
2021/10/16 04:27:44;;;;;;;14.10;2.93;;;6.60;99.90;;;;;;5249344;28;20228;-66
2021/10/16 04:30:18;;;;;;;16.70;3.30;;;6.50;99.90;;;;;;5250033;28;20228;-69
2021/10/16 04:32:50;;;;;;;12.27;2.77;;;6.50;99.90;;;;;;5249706;28;20211;-65
2021/10/16 04:35:22;;;;;;;15.27;2.80;;;6.50;99.90;;;;;;5249815;28;20221;-66
2021/10/16 04:37:57;;;;;;;14.23;2.97;;;6.50;99.90;;;;;;5282673;28;20219;-67
2021/10/16 04:40:30;;;;;;;12.23;2.33;;;6.50;99.90;;;;;;5250518;28;20236;-71
2021/10/16 04:43:05;;;;;;;8.57;2.73;;;6.50;99.90;;;;;;5254110;28;20208;-68
2021/10/16 04:45:45;;;;;;;10.63;2.53;;;6.50;99.90;;;;;;5253437;28;20231;-67
2021/10/16 04:48:19;;;;;;;24.93;3.13;;;6.50;99.90;;;;;;5253703;28;20636;-67
2021/10/16 04:50:54;;;;;;;11.53;2.93;;;6.50;99.90;;;;;;5286425;28;20228;-66
2021/10/16 04:53:26;;;;;;;17.40;3.47;;;6.50;99.90;;;;;;5253323;28;20203;-70
2021/10/16 04:56:00;;;;;;;10.67;2.60;;;6.50;99.90;;;;;;5253201;28;20225;-69
2021/10/16 04:58:33;;;;;;;15.27;3.23;;;6.50;99.90;;;;;;5286095;28;20215;-65
2021/10/16 05:01:05;;;;;;;21.77;3.03;;;6.40;99.90;;;;;;5252448;28;20244;-67
2021/10/16 05:03:37;;;;;;;16.83;2.97;;;6.40;99.90;;;;;;5235848;28;20200;-68
2021/10/16 05:06:09;;;;;;;15.47;3.27;;;6.40;99.90;;;;;;5253205;28;20255;-68
2021/10/16 05:08:41;;;;;;;12.77;2.83;;;6.40;99.90;;;;;;5253303;28;20251;-68
2021/10/16 05:11:15;;;;;;;11.60;2.80;;;6.40;99.90;;;;;;5252119;28;20232;-67
2021/10/16 05:13:49;;;;;;;8.13;2.37;;;6.40;99.90;;;;;;5253456;28;20204;-72
2021/10/16 05:16:21;;;;;;;15.17;3.20;;;6.40;99.90;;;;;;5253174;28;20589;-68
2021/10/16 05:18:55;;;;;;;18.20;2.90;;;6.40;99.90;;;;;;5251762;28;20216;-70
2021/10/16 05:21:27;;;;;;;18.77;2.90;;;6.40;99.90;;;;;;5253111;28;20224;-67
2021/10/16 05:23:59;;;;;;;14.07;3.10;;;6.40;99.90;;;;;;5252994;28;20204;-68
2021/10/16 05:26:34;;;;;;;15.03;3.10;;;6.40;99.90;;;;;;5252829;28;20237;-71
2021/10/16 05:29:09;;;;;;;11.40;2.53;;;6.40;99.90;;;;;;5252003;28;20228;-68
2021/10/16 05:31:41;;;;;;;12.23;2.50;;;6.40;99.90;;;;;;5252841;28;20231;-65
2021/10/16 05:34:13;;;;;;;20.03;3.40;;;6.40;99.90;;;;;;5252238;28;20201;-66
2021/10/16 05:36:45;;;;;;;11.27;2.57;;;6.50;99.90;;;;;;5253070;28;20220;-66
2021/10/16 05:39:17;;;;;;;13.10;3.20;;;6.50;99.90;;;;;;5252872;28;20344;-67
2021/10/16 05:41:51;;;;;;;19.57;3.47;;;6.50;99.90;;;;;;5252037;28;20224;-69
2021/10/16 05:44:27;;;;;;;12.60;2.93;;;6.50;99.90;;;;;;5285813;28;20211;-68
2021/10/16 05:46:59;;;;;;;11.20;2.80;;;6.60;99.90;;;;;;5252650;28;20231;-68
2021/10/16 05:49:32;;;;;;;13.97;2.80;;;6.60;99.90;;;;;;5287562;28;20189;-71
2021/10/16 05:52:04;;;;;;;11.90;2.80;;;6.60;99.90;;;;;;5253206;28;20228;-69
2021/10/16 05:54:39;;;;;;;14.07;3.30;;;6.70;99.90;;;;;;5253185;28;20213;-67
2021/10/16 05:57:11;;;;;;;17.40;3.17;;;6.70;99.90;;;;;;5252388;28;20232;-68
2021/10/16 05:59:43;;;;;;;20.10;3.33;;;6.80;99.90;;;;;;5252279;28;20240;-70
2021/10/16 06:02:17;;;;;;;13.47;2.63;;;7.00;99.90;;;;;;5250943;28;20232;-66
2021/10/16 06:04:49;;;;;;;17.10;3.50;;;7.10;99.90;;;;;;5251719;28;20193;-67
2021/10/16 06:07:21;;;;;;;13.13;2.77;;;7.40;99.90;;;;;;5251976;28;20664;-66
2021/10/16 06:09:53;;;;;;;11.40;2.87;;;8.00;99.90;;;;;;5252645;28;20185;-69
2021/10/16 06:12:25;;;;;;;12.63;3.03;;;8.60;99.90;;;;;;5252745;28;20228;-68
2021/10/16 06:14:57;;;;;;;19.87;3.30;;;9.00;99.90;;;;;;5251987;28;20201;-68
2021/10/16 06:17:31;;;;;;;11.83;2.53;;;9.20;99.90;;;;;;5285798;28;20233;-67
2021/10/16 06:20:06;;;;;;;8.83;2.43;;;9.30;99.90;;;;;;5253457;28;20200;-67
2021/10/16 06:22:39;;;;;;;16.20;2.80;;;9.50;99.90;;;;;;5253231;28;20232;-67
2021/10/16 06:25:11;;;;;;;10.33;2.67;;;9.70;99.90;;;;;;5251224;28;20215;-65
2021/10/16 06:27:43;;;;;;;14.37;3.20;;;10.10;99.90;;;;;;5252452;28;20252;-66
2021/10/16 06:30:15;;;;;;;11.23;2.60;;;10.40;99.90;;;;;;5284623;28;20295;-67
2021/10/16 06:32:48;;;;;;;8.40;2.50;;;10.70;99.90;;;;;;5251953;28;20229;-68
2021/10/16 06:35:20;;;;;;;11.90;2.63;;;11.10;99.90;;;;;;5284834;28;20652;-70
2021/10/16 06:37:52;;;;;;;12.27;2.50;;;11.30;99.90;;;;;;5251638;28;20228;-67
2021/10/16 06:40:24;;;;;;;9.73;2.63;;;11.60;99.90;;;;;;5252588;28;20250;-67
2021/10/16 06:42:56;;;;;;;8.10;2.53;;;11.90;99.90;;;;;;5251874;28;20209;-68
2021/10/16 06:45:28;;;;;;;10.90;2.90;;;12.20;99.90;;;;;;5251478;28;20200;-72
2021/10/16 06:48:00;;;;;;;9.90;2.90;;;12.50;99.90;;;;;;5251134;28;20229;-70
2021/10/16 06:50:32;;;;;;;10.77;2.70;;;12.70;99.90;;;;;;5251587;28;20211;-67
2021/10/16 06:53:04;;;;;;;10.97;3.03;;;12.70;99.90;;;;;;5251400;28;20228;-68
2021/10/16 06:55:36;;;;;;;10.40;2.20;;;12.60;99.90;;;;;;5251063;28;20283;-69
2021/10/16 06:58:08;;;;;;;9.17;2.70;;;12.70;99.90;;;;;;5283389;28;20236;-70
2021/10/16 07:00:40;;;;;;;14.63;2.93;;;13.00;99.90;;;;;;5250631;28;20209;-73
2021/10/16 07:03:15;;;;;;;12.80;3.10;;;12.90;99.90;;;;;;5249673;28;20233;-66
2021/10/16 07:05:47;;;;;;;13.77;3.17;;;12.70;99.90;;;;;;5250685;28;20235;-67
2021/10/16 07:08:19;;;;;;;14.37;2.73;;;12.20;99.90;;;;;;5249773;28;20244;-68
2021/10/16 07:10:54;;;;;;;10.50;2.77;;;11.80;99.90;;;;;;5250609;28;20629;-68
2021/10/16 07:13:26;;;;;;;9.07;2.83;;;11.50;99.90;;;;;;5250182;28;20228;-66
2021/10/16 07:15:58;;;;;;;9.93;2.93;;;11.20;99.90;;;;;;5251209;28;20364;-67
2021/10/16 07:18:33;;;;;;;17.13;4.47;;;11.00;99.90;;;;;;5251806;28;20316;-69
2021/10/16 07:21:05;;;;;;;12.27;3.60;;;10.80;99.90;;;;;;5250702;28;20204;-67
2021/10/16 07:23:57;;;;;;;14.27;3.37;;;10.70;99.90;;;;;;5251838;28;20244;-73
2021/10/16 07:26:29;;;;;;;12.83;3.20;;;10.60;99.90;;;;;;5250944;28;20632;-71
2021/10/16 07:29:01;;;;;;;13.83;3.03;;;10.40;99.90;;;;;;5250797;28;20665;-71
2021/10/16 07:31:34;;;;;;;11.73;2.83;;;10.20;99.90;;;;;;5251817;28;20240;-70
2021/10/16 07:34:05;;;;;;;9.07;2.93;;;10.20;99.90;;;;;;5251309;28;20225;-67
2021/10/16 07:36:38;;;;;;;16.27;3.40;;;10.20;99.90;;;;;;5284193;28;20196;-70
2021/10/16 07:39:11;;;;;;;22.70;4.00;;;10.20;99.90;;;;;;5250609;28;20331;-70
2021/10/16 07:41:46;;;;;;;16.70;3.93;;;10.10;99.90;;;;;;5249230;28;20224;-69
2021/10/16 07:44:18;;;;;;;17.13;3.50;;;10.10;99.90;;;;;;5250344;28;20235;-68
2021/10/16 07:46:50;;;;;;;13.00;3.10;;;10.00;99.90;;;;;;5250899;28;20205;-68
2021/10/16 07:49:22;;;;;;;11.33;3.57;;;10.00;99.90;;;;;;5250635;28;20654;-71
2021/10/16 07:51:56;;;;;;;15.03;3.43;;;10.00;99.90;;;;;;5250411;28;20534;-69
2021/10/16 07:54:28;;;;;;;12.33;3.23;;;10.00;99.90;;;;;;5282905;28;20224;-68
2021/10/16 07:57:01;;;;;;;11.17;3.53;;;10.00;99.90;;;;;;5250684;28;20616;-71
2021/10/16 07:59:38;;;;;;;12.80;3.50;;;10.00;99.90;;;;;;5249568;28;20306;-68
2021/10/16 08:02:12;;;;;;;13.53;2.83;;;10.00;99.90;;;;;;5251011;28;20196;-69
2021/10/16 08:04:44;;;;;;;11.17;3.50;;;10.10;99.90;;;;;;5251452;28;20229;-67
2021/10/16 08:07:16;;;;;;;15.17;3.33;;;10.10;99.90;;;;;;5283870;28;20507;-70
2021/10/16 08:09:48;;;;;;;13.77;3.40;;;10.20;99.90;;;;;;5282478;28;20228;-68
2021/10/16 08:12:21;;;;;;;16.63;3.83;;;10.20;99.90;;;;;;5250169;28;20544;-68
2021/10/16 08:14:53;;;;;;;14.73;3.90;;;10.30;99.90;;;;;;5249411;28;20239;-69
2021/10/16 08:17:27;;;;;;;15.97;3.87;;;10.30;99.90;;;;;;5250001;28;20200;-69
2021/10/16 08:19:59;;;;;;;9.87;3.07;;;10.40;99.90;;;;;;5250128;28;20529;-71
2021/10/16 08:22:32;;;;;;;15.13;3.23;;;10.40;99.90;;;;;;5250057;28;20236;-68
2021/10/16 08:25:07;;;;;;;14.97;4.07;;;10.50;99.90;;;;;;5249408;28;20299;-68
2021/10/16 08:27:42;;;;;;;11.40;3.53;;;10.60;99.90;;;;;;5249939;28;20211;-67
2021/10/16 08:30:16;;;;;;;13.50;3.47;;;10.60;99.90;;;;;;5249584;28;20239;-69
2021/10/16 08:32:48;;;;;;;12.47;3.60;;;10.60;99.90;;;;;;5249633;28;20200;-70
2021/10/16 08:35:22;;;;;;;9.83;3.30;;;10.70;99.90;;;;;;5249340;28;20240;-68
2021/10/16 08:37:54;;;;;;;11.97;3.10;;;10.90;99.90;;;;;;5248484;28;20215;-67
2021/10/16 08:40:27;;;;;;;13.67;3.27;;;11.00;99.90;;;;;;5249242;28;20293;-67
2021/10/16 08:43:00;;;;;;;15.60;3.87;;;11.10;99.90;;;;;;5249008;28;20605;-66
2021/10/16 08:45:32;;;;;;;11.87;3.60;;;11.20;99.90;;;;;;5248749;28;20520;-67
2021/10/16 08:48:06;;;;;;;11.83;3.30;;;11.20;99.90;;;;;;5249234;28;20228;-72
2021/10/16 08:50:45;;;;;;;7.33;2.27;;;11.30;99.90;;;;;;5249397;28;20229;-68
2021/10/16 08:53:17;;;;;;;12.87;2.80;;;11.30;99.90;;;;;;5248401;28;20293;-72
2021/10/16 08:55:52;;;;;;;8.03;2.43;;;11.40;99.90;;;;;;5281236;28;20225;-70
2021/10/16 08:58:24;;;;;;;13.17;2.30;;;11.50;99.90;;;;;;5249680;28;20215;-70
2021/10/16 09:00:56;;;;;;;8.30;2.23;;;11.50;99.90;;;;;;5248715;28;20204;-67
2021/10/16 09:03:35;;;;;;;11.30;2.20;;;11.60;99.90;;;;;;5281405;28;20235;-68
2021/10/16 09:06:25;;;;;;;9.60;1.80;;;11.60;99.90;;;;;;5249047;28;20253;-70
2021/10/16 09:09:07;;;;;;;14.23;2.30;;;11.60;99.90;;;;;;5249094;28;20240;-72
2021/10/16 09:11:44;;;;;;;10.50;2.00;;;11.50;99.90;;;;;;5248331;28;20196;-67
2021/10/16 09:14:19;;;;;;;9.37;2.40;;;11.40;99.90;;;;;;5232621;28;20189;-70
2021/10/16 09:16:57;;;;;;;4.73;1.70;;;11.40;99.90;;;;;;5247806;28;20200;-68
2021/10/16 09:19:34;;;;;;;11.00;1.93;;;11.40;99.90;;;;;;5248214;28;20484;-66
2021/10/16 09:22:08;;;;;;;5.20;1.70;;;11.40;99.90;;;;;;5249391;28;20199;-69
2021/10/16 09:24:45;;;;;;;7.80;1.80;;;11.50;99.90;;;;;;5248870;28;20222;-68
2021/10/16 09:27:25;;;;;;;9.47;1.90;;;11.60;99.90;;;;;;5249363;28;20193;-70
2021/10/16 09:30:08;;;;;;;12.10;2.27;;;11.60;99.90;;;;;;5252534;28;20235;-67
2021/10/16 09:32:40;;;;;;;9.63;1.83;;;11.50;99.90;;;;;;5252819;28;20196;-71
2021/10/16 09:35:14;;;;;;;10.27;2.37;;;11.40;99.90;;;;;;5251644;28;20225;-71
2021/10/16 09:37:53;;;;;;;9.70;2.20;;;11.40;99.90;;;;;;5252482;28;20195;-67
2021/10/16 09:40:40;;;;;;;6.70;1.80;;;11.30;99.90;;;;;;5252874;28;20228;-72
2021/10/16 09:43:23;;;;;;;11.57;2.30;;;11.40;99.90;;;;;;5251474;28;20568;-65
2021/10/16 09:46:15;;;;;;;7.63;2.37;;;11.40;99.90;;;;;;5252255;28;20244;-69
2021/10/16 09:48:48;;;;;;;13.80;2.67;;;11.40;99.90;;;;;;5252348;28;20247;-68
2021/10/16 09:51:21;;;;;;;14.63;2.13;;;11.30;99.90;;;;;;5252413;28;20244;-70
2021/10/16 09:54:06;;;;;;;12.13;2.20;;;11.10;99.90;;;;;;5252831;28;20201;-68
2021/10/16 09:56:39;;;;;;;11.80;2.37;;;11.00;99.90;;;;;;5251764;28;20240;-68
2021/10/16 09:59:16;;;;;;;12.80;2.30;;;10.90;99.90;;;;;;5252441;28;20569;-67
2021/10/16 10:01:48;;;;;;;9.07;2.20;;;10.90;99.90;;;;;;5252504;28;20272;-64
2021/10/16 10:04:23;;;;;;;14.47;2.30;;;10.90;99.90;;;;;;5252182;28;20291;-71
2021/10/16 10:06:57;;;;;;;11.57;2.50;;;10.90;99.90;;;;;;5251857;28;20660;-68
2021/10/16 10:09:33;;;;;;;6.57;2.20;;;10.90;99.90;;;;;;5251857;28;20255;-68
2021/10/16 10:12:06;;;;;;;9.83;2.40;;;10.80;99.90;;;;;;5251156;28;20236;-67
2021/10/16 10:14:43;;;;;;;8.73;2.07;;;10.90;99.90;;;;;;5252099;28;20255;-68
2021/10/16 10:17:26;;;;;;;7.23;1.90;;;10.90;99.90;;;;;;5251807;28;20573;-69
2021/10/16 10:20:13;;;;;;;11.60;2.50;;;11.00;99.90;;;;;;5252143;28;20224;-69
2021/10/16 10:22:45;;;;;;;11.37;2.27;;;11.00;99.90;;;;;;5252289;28;20551;-67
2021/10/16 10:25:19;;;;;;;11.33;2.53;;;11.00;99.90;;;;;;5251778;28;20204;-68
2021/10/16 10:27:54;;;;;;;10.37;2.03;;;11.00;99.90;;;;;;5252149;28;20208;-72
2021/10/16 10:30:35;;;;;;;8.80;2.20;;;11.00;99.90;;;;;;5251445;28;20250;-68
2021/10/16 10:33:16;;;;;;;8.90;2.17;;;11.10;99.90;;;;;;5251650;28;20197;-66
2021/10/16 10:35:59;;;;;;;9.43;1.93;;;11.10;99.90;;;;;;5252346;28;20205;-64
2021/10/16 10:38:34;;;;;;;7.33;2.27;;;11.20;99.90;;;;;;5251661;28;20243;-72
2021/10/16 10:41:24;;;;;;;11.70;2.23;;;11.30;99.90;;;;;;5252454;28;20209;-71
2021/10/16 10:44:00;;;;;;;10.43;2.17;;;11.40;99.90;;;;;;5251063;28;20220;-66
2021/10/16 10:46:32;;;;;;;11.87;2.10;;;11.30;99.90;;;;;;5251963;28;20232;-65
2021/10/16 10:49:09;;;;;;;11.77;2.00;;;11.30;99.90;;;;;;5251202;28;20205;-68
2021/10/16 10:51:41;;;;;;;8.30;2.30;;;11.20;99.90;;;;;;5251224;28;20239;-67
2021/10/16 10:54:16;;;;;;;11.87;2.00;;;11.10;99.90;;;;;;5251601;28;20196;-69
2021/10/16 10:56:57;;;;;;;9.83;2.60;;;11.10;99.90;;;;;;5251464;28;20227;-73
2021/10/16 10:59:58;;;;;;;9.47;2.07;;;11.10;99.90;;;;;;5251188;28;20185;-66
2021/10/16 11:02:31;;;;;;;9.80;2.43;;;11.20;99.90;;;;;;5250945;28;20204;-68
2021/10/16 11:05:23;;;;;;;8.40;2.10;;;11.40;99.90;;;;;;5250656;28;20215;-68
2021/10/16 11:08:09;;;;;;;8.50;2.00;;;11.50;99.90;;;;;;5250238;28;20251;-71
2021/10/16 11:10:44;;;;;;;15.43;2.60;;;11.70;99.90;;;;;;5250883;28;20209;-70
2021/10/16 11:13:19;;;;;;;13.47;2.97;;;11.70;99.90;;;;;;5250343;28;20311;-70
2021/10/16 11:16:03;;;;;;;13.10;2.70;;;11.60;99.90;;;;;;5249692;28;20200;-71
2021/10/16 11:18:36;;;;;;;9.97;2.33;;;11.60;99.90;;;;;;5250830;28;20216;-68
2021/10/16 11:21:11;;;;;;;8.70;2.33;;;11.50;99.90;;;;;;5283249;28;20208;-72
2021/10/16 11:23:43;;;;;;;14.50;2.73;;;11.30;99.90;;;;;;5250813;28;20737;-71
2021/10/16 11:26:16;;;;;;;12.03;3.23;;;11.20;99.90;;;;;;5249374;28;20231;-67
2021/10/16 11:28:48;;;;;;;13.57;2.50;;;11.20;99.90;;;;;;5250320;28;20225;-65
2021/10/16 11:31:22;;;;;;;13.63;2.87;;;11.20;99.90;;;;;;5250464;28;20585;-65
2021/10/16 11:33:54;;;;;;;12.37;2.70;;;11.30;99.90;;;;;;5250199;28;20270;-66
2021/10/16 11:36:27;;;;;;;12.87;2.83;;;11.30;99.90;;;;;;5250611;28;20205;-65
2021/10/16 11:39:05;;;;;;;9.70;2.60;;;11.20;99.90;;;;;;5249562;28;20224;-69
2021/10/16 11:41:37;;;;;;;13.03;2.70;;;11.20;99.90;;;;;;5249122;28;20200;-73
2021/10/16 11:44:15;;;;;;;14.43;2.60;;;11.30;99.90;;;;;;5232470;28;20231;-64
2021/10/16 11:47:04;;;;;;;9.77;2.30;;;11.30;99.90;;;;;;5247580;28;20198;-70
2021/10/16 11:49:36;;;;;;;14.50;2.93;;;11.40;99.90;;;;;;5249094;28;20671;-71
2021/10/16 11:52:25;;;;;;;12.73;2.93;;;11.50;99.90;;;;;;5232698;28;20197;-71
2021/10/16 11:55:16;;;;;;;13.30;2.50;;;11.70;99.90;;;;;;5249449;28;20601;-71
2021/10/16 11:57:49;;;;;;;6.50;2.33;;;11.80;99.90;;;;;;5249158;28;20582;-72
2021/10/16 12:00:26;;;;;;;10.40;2.07;;;11.80;99.90;;;;;;5250063;28;20204;-71
2021/10/16 12:03:05;;;;;;;9.93;2.50;;;11.80;99.90;;;;;;5249802;28;20601;-70
2021/10/16 12:05:37;;;;;;;12.60;2.30;;;11.70;99.90;;;;;;5250319;28;20272;-69
2021/10/16 12:08:21;;;;;;;9.20;2.80;;;11.70;99.90;;;;;;5250240;28;20243;-72
2021/10/16 12:10:58;;;;;;;10.37;2.13;;;11.60;99.90;;;;;;5250324;28;20225;-72
2021/10/16 12:13:33;;;;;;;8.97;2.23;;;11.50;99.90;;;;;;5249531;28;20224;-73
2021/10/16 12:16:17;;;;;;;6.93;2.57;;;11.50;99.90;;;;;;5248869;28;20184;-70
2021/10/16 12:18:59;;;;;;;10.97;2.80;;;11.50;99.90;;;;;;5250569;28;20228;-69
2021/10/16 12:21:35;;;;;;;10.23;2.77;;;11.50;99.90;;;;;;5249140;28;20355;-70
2021/10/16 12:24:19;;;;;;;9.30;2.20;;;11.40;99.90;;;;;;5250000;28;20651;-67
2021/10/16 12:27:09;;;;;;;10.17;2.73;;;11.40;99.90;;;;;;5251035;28;20189;-70
2021/10/16 12:29:44;;;;;;;9.47;2.83;;;11.40;99.90;;;;;;5250610;28;20285;-71
2021/10/16 12:32:18;;;;;;;12.07;2.90;;;11.30;99.90;;;;;;5250144;28;20576;-71
2021/10/16 12:34:52;;;;;;;12.73;3.10;;;11.40;99.90;;;;;;5249979;28;20228;-70
2021/10/16 12:37:24;;;;;;;8.63;3.13;;;11.40;99.90;;;;;;5248181;28;20257;-69
2021/10/16 12:40:07;;;;;;;9.97;2.37;;;11.40;99.90;;;;;;5249958;28;20348;-68
2021/10/16 12:42:39;;;;;;;8.87;2.70;;;11.40;99.90;;;;;;5248840;28;20537;-71
2021/10/16 12:45:12;;;;;;;10.23;2.40;;;11.30;99.90;;;;;;5249708;28;20237;-69
2021/10/16 12:47:44;;;;;;;11.10;2.70;;;11.30;99.90;;;;;;5250641;28;20212;-71
2021/10/16 12:50:18;;;;;;;8.13;2.60;;;11.40;99.90;;;;;;5248245;28;20244;-69
2021/10/16 12:52:59;;;;;;;9.37;3.43;;;11.60;99.90;;;;;;5249553;28;20209;-66
2021/10/16 12:55:31;;;;;;;15.20;3.10;;;11.70;99.90;;;;;;5249337;28;20308;-69
2021/10/16 12:58:07;;;;;;;14.27;2.77;;;11.70;99.90;;;;;;5249609;28;20209;-70
2021/10/16 13:00:42;;;;;;;10.80;3.13;;;11.70;99.90;;;;;;5247619;28;20232;-69
2021/10/16 13:03:15;;;;;;;12.70;2.77;;;11.80;99.90;;;;;;5253820;28;20208;-70
2021/10/16 13:05:48;;;;;;;15.73;3.23;;;11.80;99.90;;;;;;5259963;28;20233;-70
2021/10/16 13:08:20;;;;;;;10.53;2.77;;;11.80;99.90;;;;;;5252859;28;20706;-71
2021/10/16 13:10:52;;;;;;;12.00;2.57;;;11.80;99.90;;;;;;5255860;28;20309;-73
2021/10/16 13:13:24;;;;;;;13.20;3.77;;;11.70;99.90;;;;;;5252402;28;20524;-71
2021/10/16 13:15:56;;;;;;;12.95;2.42;;;11.60;99.90;;;;;;5257461;28;20427;-67
2021/10/16 13:18:28;;;;;;;12.23;3.00;;;11.50;99.90;;;;;;5254251;28;20193;-69
2021/10/16 13:21:00;;;;;;;12.90;3.37;;;11.40;99.90;;;;;;5252278;28;20229;-66